sensor_id;sensor_type;location;lat;lon;timestamp;P1;durP1;ratioP1;P2;durP2;ratioP2
47455;SDS011;33202;48.512;-2.780;2022-11-20T00:01:47;4.35;;;2.17;;
47455;SDS011;33202;48.512;-2.780;2022-11-20T00:04:12;4.03;;;2.00;;
47455;SDS011;33202;48.512;-2.780;2022-11-20T00:06:38;4.50;;;2.50;;
47455;SDS011;33202;48.512;-2.780;2022-11-20T00:09:04;5.18;;;2.40;;
47455;SDS011;33202;48.512;-2.780;2022-11-20T00:11:30;4.88;;;2.08;;
47455;SDS011;33202;48.512;-2.780;2022-11-20T00:13:57;8.07;;;2.10;;
47455;SDS011;33202;48.512;-2.780;2022-11-20T00:16:26;6.72;;;2.00;;
47455;SDS011;33202;48.512;-2.780;2022-11-20T00:18:53;4.43;;;1.80;;
47455;SDS011;33202;48.512;-2.780;2022-11-20T00:21:20;7.43;;;1.92;;
47455;SDS011;33202;48.512;-2.780;2022-11-20T00:23:51;4.72;;;2.00;;
47455;SDS011;33202;48.512;-2.780;2022-11-20T00:26:18;5.72;;;2.17;;
47455;SDS011;33202;48.512;-2.780;2022-11-20T00:28:55;4.55;;;1.85;;
47455;SDS011;33202;48.512;-2.780;2022-11-20T00:31:22;3.55;;;1.65;;
47455;SDS011;33202;48.512;-2.780;2022-11-20T00:33:48;5.13;;;1.80;;
47455;SDS011;33202;48.512;-2.780;2022-11-20T00:36:17;5.25;;;1.90;;
47455;SDS011;33202;48.512;-2.780;2022-11-20T00:38:45;3.45;;;1.50;;
47455;SDS011;33202;48.512;-2.780;2022-11-20T00:41:12;2.90;;;1.55;;
47455;SDS011;33202;48.512;-2.780;2022-11-20T00:43:39;3.53;;;1.40;;
47455;SDS011;33202;48.512;-2.780;2022-11-20T00:46:10;8.75;;;2.33;;
47455;SDS011;33202;48.512;-2.780;2022-11-20T00:48:40;7.55;;;1.58;;
47455;SDS011;33202;48.512;-2.780;2022-11-20T00:51:06;6.40;;;1.73;;
47455;SDS011;33202;48.512;-2.780;2022-11-20T00:53:32;6.38;;;1.92;;
47455;SDS011;33202;48.512;-2.780;2022-11-20T00:56:02;4.20;;;1.85;;
47455;SDS011;33202;48.512;-2.780;2022-11-20T00:58:33;4.25;;;1.85;;
47455;SDS011;33202;48.512;-2.780;2022-11-20T01:01:01;4.28;;;1.65;;
47455;SDS011;33202;48.512;-2.780;2022-11-20T01:03:33;4.53;;;2.05;;
47455;SDS011;33202;48.512;-2.780;2022-11-20T01:06:01;5.63;;;2.22;;
47455;SDS011;33202;48.512;-2.780;2022-11-20T01:08:35;5.07;;;2.03;;
47455;SDS011;33202;48.512;-2.780;2022-11-20T01:11:01;8.68;;;3.00;;
47455;SDS011;33202;48.512;-2.780;2022-11-20T01:16:04;15.98;;;5.72;;
47455;SDS011;33202;48.512;-2.780;2022-11-20T01:18:32;9.95;;;5.28;;
47455;SDS011;33202;48.512;-2.780;2022-11-20T01:21:05;12.35;;;4.75;;
47455;SDS011;33202;48.512;-2.780;2022-11-20T01:23:36;14.63;;;6.55;;
47455;SDS011;33202;48.512;-2.780;2022-11-20T01:26:05;8.80;;;3.65;;
47455;SDS011;33202;48.512;-2.780;2022-11-20T01:28:32;9.60;;;3.75;;
47455;SDS011;33202;48.512;-2.780;2022-11-20T01:30:58;7.00;;;3.75;;
47455;SDS011;33202;48.512;-2.780;2022-11-20T01:33:24;6.60;;;2.20;;
47455;SDS011;33202;48.512;-2.780;2022-11-20T01:35:50;7.32;;;2.45;;
47455;SDS011;33202;48.512;-2.780;2022-11-20T01:38:16;7.45;;;3.92;;
47455;SDS011;33202;48.512;-2.780;2022-11-20T01:40:42;8.80;;;3.50;;
47455;SDS011;33202;48.512;-2.780;2022-11-20T01:43:16;7.78;;;4.93;;
47455;SDS011;33202;48.512;-2.780;2022-11-20T01:48:18;6.63;;;3.65;;
47455;SDS011;33202;48.512;-2.780;2022-11-20T01:50:45;6.57;;;2.83;;
47455;SDS011;33202;48.512;-2.780;2022-11-20T01:53:12;3.42;;;1.95;;
47455;SDS011;33202;48.512;-2.780;2022-11-20T01:55:41;5.50;;;2.42;;
47455;SDS011;33202;48.512;-2.780;2022-11-20T01:58:12;7.32;;;3.25;;
47455;SDS011;33202;48.512;-2.780;2022-11-20T02:00:39;7.20;;;2.40;;
47455;SDS011;33202;48.512;-2.780;2022-11-20T02:03:07;5.68;;;2.75;;
47455;SDS011;33202;48.512;-2.780;2022-11-20T02:05:43;8.73;;;4.05;;
47455;SDS011;33202;48.512;-2.780;2022-11-20T02:08:19;7.25;;;3.08;;
47455;SDS011;33202;48.512;-2.780;2022-11-20T02:10:46;9.93;;;5.35;;
47455;SDS011;33202;48.512;-2.780;2022-11-20T02:13:11;11.63;;;5.28;;
47455;SDS011;33202;48.512;-2.780;2022-11-20T02:15:56;8.52;;;4.25;;
47455;SDS011;33202;48.512;-2.780;2022-11-20T02:18:21;16.55;;;7.60;;
47455;SDS011;33202;48.512;-2.780;2022-11-20T02:20:50;7.10;;;3.35;;
47455;SDS011;33202;48.512;-2.780;2022-11-20T02:23:27;4.00;;;1.63;;
47455;SDS011;33202;48.512;-2.780;2022-11-20T02:26:03;6.03;;;2.20;;
47455;SDS011;33202;48.512;-2.780;2022-11-20T02:28:34;6.20;;;2.85;;
47455;SDS011;33202;48.512;-2.780;2022-11-20T02:31:00;5.75;;;2.83;;
47455;SDS011;33202;48.512;-2.780;2022-11-20T02:33:26;5.13;;;1.52;;
47455;SDS011;33202;48.512;-2.780;2022-11-20T02:35:51;3.22;;;1.73;;
47455;SDS011;33202;48.512;-2.780;2022-11-20T02:38:17;5.60;;;1.80;;
47455;SDS011;33202;48.512;-2.780;2022-11-20T02:40:43;2.58;;;1.17;;
47455;SDS011;33202;48.512;-2.780;2022-11-20T02:43:09;3.75;;;1.25;;
47455;SDS011;33202;48.512;-2.780;2022-11-20T02:45:35;2.60;;;1.25;;
47455;SDS011;33202;48.512;-2.780;2022-11-20T02:48:00;2.53;;;0.90;;
47455;SDS011;33202;48.512;-2.780;2022-11-20T02:50:26;2.58;;;1.13;;
47455;SDS011;33202;48.512;-2.780;2022-11-20T02:52:52;5.00;;;1.20;;
47455;SDS011;33202;48.512;-2.780;2022-11-20T02:55:17;1.52;;;0.88;;
47455;SDS011;33202;48.512;-2.780;2022-11-20T02:57:43;1.70;;;1.00;;
47455;SDS011;33202;48.512;-2.780;2022-11-20T03:00:09;2.80;;;1.25;;
47455;SDS011;33202;48.512;-2.780;2022-11-20T03:02:35;3.47;;;1.20;;
47455;SDS011;33202;48.512;-2.780;2022-11-20T03:05:00;2.63;;;1.08;;
47455;SDS011;33202;48.512;-2.780;2022-11-20T03:07:26;3.45;;;1.35;;
47455;SDS011;33202;48.512;-2.780;2022-11-20T03:09:52;2.38;;;0.80;;
47455;SDS011;33202;48.512;-2.780;2022-11-20T03:12:17;1.23;;;0.73;;
47455;SDS011;33202;48.512;-2.780;2022-11-20T03:14:43;1.65;;;0.68;;
47455;SDS011;33202;48.512;-2.780;2022-11-20T03:17:08;2.05;;;0.65;;
47455;SDS011;33202;48.512;-2.780;2022-11-20T03:19:34;1.42;;;0.70;;
47455;SDS011;33202;48.512;-2.780;2022-11-20T03:22:00;0.80;;;0.40;;
47455;SDS011;33202;48.512;-2.780;2022-11-20T03:24:26;1.25;;;0.30;;
47455;SDS011;33202;48.512;-2.780;2022-11-20T03:26:51;1.50;;;0.52;;
47455;SDS011;33202;48.512;-2.780;2022-11-20T03:29:17;2.03;;;0.38;;
47455;SDS011;33202;48.512;-2.780;2022-11-20T03:31:43;2.92;;;0.55;;
47455;SDS011;33202;48.512;-2.780;2022-11-20T03:34:09;0.93;;;0.40;;
47455;SDS011;33202;48.512;-2.780;2022-11-20T03:36:39;1.00;;;0.40;;
47455;SDS011;33202;48.512;-2.780;2022-11-20T03:39:05;0.80;;;0.30;;
47455;SDS011;33202;48.512;-2.780;2022-11-20T03:41:35;1.45;;;0.45;;
47455;SDS011;33202;48.512;-2.780;2022-11-20T03:44:03;1.23;;;0.30;;
47455;SDS011;33202;48.512;-2.780;2022-11-20T03:46:30;1.17;;;0.50;;
47455;SDS011;33202;48.512;-2.780;2022-11-20T03:48:55;2.33;;;0.40;;
47455;SDS011;33202;48.512;-2.780;2022-11-20T03:51:22;0.88;;;0.35;;
47455;SDS011;33202;48.512;-2.780;2022-11-20T03:53:50;2.65;;;0.57;;
47455;SDS011;33202;48.512;-2.780;2022-11-20T03:56:18;0.88;;;0.40;;
47455;SDS011;33202;48.512;-2.780;2022-11-20T03:58:45;1.27;;;0.40;;
47455;SDS011;33202;48.512;-2.780;2022-11-20T04:03:38;0.70;;;0.55;;
47455;SDS011;33202;48.512;-2.780;2022-11-20T04:06:05;0.28;;;0.10;;
47455;SDS011;33202;48.512;-2.780;2022-11-20T04:08:34;0.60;;;0.30;;
47455;SDS011;33202;48.512;-2.780;2022-11-20T04:11:13;0.70;;;0.20;;
47455;SDS011;33202;48.512;-2.780;2022-11-20T04:13:51;1.60;;;0.30;;
47455;SDS011;33202;48.512;-2.780;2022-11-20T04:16:22;0.55;;;0.20;;
47455;SDS011;33202;48.512;-2.780;2022-11-20T04:18:54;0.60;;;0.28;;
47455;SDS011;33202;48.512;-2.780;2022-11-20T04:21:23;0.30;;;0.10;;
47455;SDS011;33202;48.512;-2.780;2022-11-20T04:23:49;0.30;;;0.20;;
47455;SDS011;33202;48.512;-2.780;2022-11-20T04:26:16;2.17;;;0.20;;
47455;SDS011;33202;48.512;-2.780;2022-11-20T04:28:42;0.10;;;0.00;;
47455;SDS011;33202;48.512;-2.780;2022-11-20T04:33:37;0.10;;;0.08;;
47455;SDS011;33202;48.512;-2.780;2022-11-20T04:36:05;0.68;;;0.20;;
47455;SDS011;33202;48.512;-2.780;2022-11-20T04:38:32;0.82;;;0.20;;
47455;SDS011;33202;48.512;-2.780;2022-11-20T04:40:59;1.42;;;0.20;;
47455;SDS011;33202;48.512;-2.780;2022-11-20T04:43:26;1.35;;;0.30;;
47455;SDS011;33202;48.512;-2.780;2022-11-20T04:45:55;2.28;;;0.40;;
47455;SDS011;33202;48.512;-2.780;2022-11-20T04:48:22;2.13;;;0.43;;
47455;SDS011;33202;48.512;-2.780;2022-11-20T04:50:49;4.40;;;0.30;;
47455;SDS011;33202;48.512;-2.780;2022-11-20T04:53:14;2.97;;;0.40;;
47455;SDS011;33202;48.512;-2.780;2022-11-20T04:55:40;2.03;;;0.55;;
47455;SDS011;33202;48.512;-2.780;2022-11-20T04:58:06;4.22;;;0.60;;
47455;SDS011;33202;48.512;-2.780;2022-11-20T05:00:32;4.50;;;0.75;;
47455;SDS011;33202;48.512;-2.780;2022-11-20T05:02:57;12.05;;;1.73;;
47455;SDS011;33202;48.512;-2.780;2022-11-20T05:05:23;10.23;;;1.90;;
47455;SDS011;33202;48.512;-2.780;2022-11-20T05:07:49;9.50;;;1.40;;
47455;SDS011;33202;48.512;-2.780;2022-11-20T05:10:15;6.25;;;1.42;;
47455;SDS011;33202;48.512;-2.780;2022-11-20T05:12:41;10.80;;;1.95;;
47455;SDS011;33202;48.512;-2.780;2022-11-20T05:15:06;10.43;;;1.88;;
47455;SDS011;33202;48.512;-2.780;2022-11-20T05:17:33;12.13;;;1.90;;
47455;SDS011;33202;48.512;-2.780;2022-11-20T05:19:58;11.30;;;1.73;;
47455;SDS011;33202;48.512;-2.780;2022-11-20T05:22:24;12.57;;;1.90;;
47455;SDS011;33202;48.512;-2.780;2022-11-20T05:24:50;7.65;;;1.85;;
47455;SDS011;33202;48.512;-2.780;2022-11-20T05:27:16;11.40;;;2.00;;
47455;SDS011;33202;48.512;-2.780;2022-11-20T05:29:42;12.18;;;2.25;;
47455;SDS011;33202;48.512;-2.780;2022-11-20T05:32:08;12.40;;;2.22;;
47455;SDS011;33202;48.512;-2.780;2022-11-20T05:34:35;13.63;;;2.72;;
47455;SDS011;33202;48.512;-2.780;2022-11-20T05:37:01;13.77;;;2.55;;
47455;SDS011;33202;48.512;-2.780;2022-11-20T05:39:28;12.87;;;2.10;;
47455;SDS011;33202;48.512;-2.780;2022-11-20T05:41:54;15.23;;;2.60;;
47455;SDS011;33202;48.512;-2.780;2022-11-20T05:44:38;21.45;;;2.60;;
47455;SDS011;33202;48.512;-2.780;2022-11-20T05:47:05;17.42;;;3.20;;
47455;SDS011;33202;48.512;-2.780;2022-11-20T05:49:31;16.50;;;3.78;;
47455;SDS011;33202;48.512;-2.780;2022-11-20T05:51:57;18.25;;;3.28;;
47455;SDS011;33202;48.512;-2.780;2022-11-20T05:54:23;13.23;;;3.03;;
47455;SDS011;33202;48.512;-2.780;2022-11-20T05:56:49;19.98;;;3.05;;
47455;SDS011;33202;48.512;-2.780;2022-11-20T05:59:15;14.00;;;2.80;;
47455;SDS011;33202;48.512;-2.780;2022-11-20T06:01:41;15.10;;;3.13;;
47455;SDS011;33202;48.512;-2.780;2022-11-20T06:04:07;28.27;;;4.30;;
47455;SDS011;33202;48.512;-2.780;2022-11-20T06:06:33;16.92;;;3.45;;
47455;SDS011;33202;48.512;-2.780;2022-11-20T06:08:59;19.00;;;3.20;;
47455;SDS011;33202;48.512;-2.780;2022-11-20T06:11:25;15.45;;;2.90;;
47455;SDS011;33202;48.512;-2.780;2022-11-20T06:13:51;15.70;;;2.70;;
47455;SDS011;33202;48.512;-2.780;2022-11-20T06:16:18;12.68;;;3.00;;
47455;SDS011;33202;48.512;-2.780;2022-11-20T06:18:44;16.88;;;2.63;;
47455;SDS011;33202;48.512;-2.780;2022-11-20T06:23:36;11.48;;;2.95;;
47455;SDS011;33202;48.512;-2.780;2022-11-20T06:26:04;16.25;;;4.18;;
47455;SDS011;33202;48.512;-2.780;2022-11-20T06:30:56;19.75;;;3.65;;
47455;SDS011;33202;48.512;-2.780;2022-11-20T06:33:22;14.70;;;2.30;;
47455;SDS011;33202;48.512;-2.780;2022-11-20T06:35:48;15.15;;;2.63;;
47455;SDS011;33202;48.512;-2.780;2022-11-20T06:38:14;15.07;;;3.80;;
47455;SDS011;33202;48.512;-2.780;2022-11-20T06:40:41;15.60;;;2.75;;
47455;SDS011;33202;48.512;-2.780;2022-11-20T06:43:07;13.30;;;2.65;;
47455;SDS011;33202;48.512;-2.780;2022-11-20T06:45:33;22.23;;;2.85;;
47455;SDS011;33202;48.512;-2.780;2022-11-20T06:47:59;13.80;;;3.03;;
47455;SDS011;33202;48.512;-2.780;2022-11-20T06:50:25;18.17;;;4.07;;
47455;SDS011;33202;48.512;-2.780;2022-11-20T06:52:51;22.17;;;4.13;;
47455;SDS011;33202;48.512;-2.780;2022-11-20T06:55:17;18.45;;;4.50;;
47455;SDS011;33202;48.512;-2.780;2022-11-20T06:57:43;20.80;;;3.75;;
47455;SDS011;33202;48.512;-2.780;2022-11-20T07:00:09;16.88;;;3.17;;
47455;SDS011;33202;48.512;-2.780;2022-11-20T07:02:35;14.60;;;3.60;;
47455;SDS011;33202;48.512;-2.780;2022-11-20T07:05:01;11.40;;;2.95;;
47455;SDS011;33202;48.512;-2.780;2022-11-20T07:07:28;13.65;;;2.67;;
47455;SDS011;33202;48.512;-2.780;2022-11-20T07:09:53;16.75;;;3.05;;
47455;SDS011;33202;48.512;-2.780;2022-11-20T07:12:19;21.90;;;3.50;;
47455;SDS011;33202;48.512;-2.780;2022-11-20T07:14:45;15.68;;;3.95;;
47455;SDS011;33202;48.512;-2.780;2022-11-20T07:17:11;23.38;;;3.75;;
47455;SDS011;33202;48.512;-2.780;2022-11-20T07:19:37;21.05;;;3.60;;
47455;SDS011;33202;48.512;-2.780;2022-11-20T07:22:03;27.65;;;4.88;;
47455;SDS011;33202;48.512;-2.780;2022-11-20T07:24:29;22.80;;;4.80;;
47455;SDS011;33202;48.512;-2.780;2022-11-20T07:26:55;17.05;;;3.38;;
47455;SDS011;33202;48.512;-2.780;2022-11-20T07:29:21;27.92;;;5.50;;
47455;SDS011;33202;48.512;-2.780;2022-11-20T07:31:48;20.80;;;4.75;;
47455;SDS011;33202;48.512;-2.780;2022-11-20T07:34:14;26.42;;;4.22;;
47455;SDS011;33202;48.512;-2.780;2022-11-20T07:36:40;24.33;;;4.72;;
47455;SDS011;33202;48.512;-2.780;2022-11-20T07:39:06;26.67;;;5.28;;
47455;SDS011;33202;48.512;-2.780;2022-11-20T07:41:31;29.98;;;4.55;;
47455;SDS011;33202;48.512;-2.780;2022-11-20T07:43:57;24.73;;;4.43;;
47455;SDS011;33202;48.512;-2.780;2022-11-20T07:46:23;26.42;;;4.47;;
47455;SDS011;33202;48.512;-2.780;2022-11-20T07:48:49;20.00;;;4.35;;
47455;SDS011;33202;48.512;-2.780;2022-11-20T07:51:15;20.02;;;4.97;;
47455;SDS011;33202;48.512;-2.780;2022-11-20T07:53:41;18.63;;;4.15;;
47455;SDS011;33202;48.512;-2.780;2022-11-20T07:56:07;28.75;;;4.78;;
47455;SDS011;33202;48.512;-2.780;2022-11-20T07:58:34;26.10;;;4.97;;
47455;SDS011;33202;48.512;-2.780;2022-11-20T08:01:07;21.33;;;4.68;;
47455;SDS011;33202;48.512;-2.780;2022-11-20T08:03:34;21.40;;;4.22;;
47455;SDS011;33202;48.512;-2.780;2022-11-20T08:06:02;20.98;;;4.90;;
47455;SDS011;33202;48.512;-2.780;2022-11-20T08:08:29;21.48;;;4.25;;
47455;SDS011;33202;48.512;-2.780;2022-11-20T08:10:58;19.77;;;4.53;;
47455;SDS011;33202;48.512;-2.780;2022-11-20T08:13:42;24.30;;;4.80;;
47455;SDS011;33202;48.512;-2.780;2022-11-20T08:16:27;19.83;;;4.40;;
47455;SDS011;33202;48.512;-2.780;2022-11-20T08:18:53;26.00;;;4.32;;
47455;SDS011;33202;48.512;-2.780;2022-11-20T08:21:19;19.90;;;4.32;;
47455;SDS011;33202;48.512;-2.780;2022-11-20T08:23:45;25.75;;;4.82;;
47455;SDS011;33202;48.512;-2.780;2022-11-20T08:26:11;18.95;;;4.03;;
47455;SDS011;33202;48.512;-2.780;2022-11-20T08:28:37;20.67;;;4.25;;
47455;SDS011;33202;48.512;-2.780;2022-11-20T08:31:03;20.42;;;4.68;;
47455;SDS011;33202;48.512;-2.780;2022-11-20T08:33:29;28.50;;;6.43;;
47455;SDS011;33202;48.512;-2.780;2022-11-20T08:36:00;25.40;;;5.63;;
47455;SDS011;33202;48.512;-2.780;2022-11-20T08:38:26;24.55;;;5.13;;
47455;SDS011;33202;48.512;-2.780;2022-11-20T08:40:55;26.70;;;5.13;;
47455;SDS011;33202;48.512;-2.780;2022-11-20T08:43:40;24.48;;;5.53;;
47455;SDS011;33202;48.512;-2.780;2022-11-20T08:46:06;29.00;;;5.47;;
47455;SDS011;33202;48.512;-2.780;2022-11-20T08:48:32;21.85;;;5.60;;
47455;SDS011;33202;48.512;-2.780;2022-11-20T08:50:58;22.30;;;4.40;;
47455;SDS011;33202;48.512;-2.780;2022-11-20T08:53:25;27.83;;;5.25;;
47455;SDS011;33202;48.512;-2.780;2022-11-20T08:55:51;23.47;;;4.83;;
47455;SDS011;33202;48.512;-2.780;2022-11-20T08:58:17;37.05;;;6.22;;
47455;SDS011;33202;48.512;-2.780;2022-11-20T09:00:43;34.10;;;5.65;;
47455;SDS011;33202;48.512;-2.780;2022-11-20T09:03:09;25.95;;;5.45;;
47455;SDS011;33202;48.512;-2.780;2022-11-20T09:05:35;29.02;;;6.20;;
47455;SDS011;33202;48.512;-2.780;2022-11-20T09:08:01;30.17;;;5.88;;
47455;SDS011;33202;48.512;-2.780;2022-11-20T09:10:27;27.27;;;5.65;;
47455;SDS011;33202;48.512;-2.780;2022-11-20T09:12:53;23.77;;;6.57;;
47455;SDS011;33202;48.512;-2.780;2022-11-20T09:15:23;29.38;;;5.88;;
47455;SDS011;33202;48.512;-2.780;2022-11-20T09:20:21;28.92;;;6.25;;
47455;SDS011;33202;48.512;-2.780;2022-11-20T09:22:47;30.33;;;4.80;;
47455;SDS011;33202;48.512;-2.780;2022-11-20T09:25:13;27.77;;;4.97;;
47455;SDS011;33202;48.512;-2.780;2022-11-20T09:27:39;28.15;;;5.97;;
47455;SDS011;33202;48.512;-2.780;2022-11-20T09:30:10;33.15;;;5.43;;
47455;SDS011;33202;48.512;-2.780;2022-11-20T09:32:38;31.17;;;6.10;;
47455;SDS011;33202;48.512;-2.780;2022-11-20T09:35:04;30.15;;;5.38;;
47455;SDS011;33202;48.512;-2.780;2022-11-20T09:37:30;30.08;;;5.55;;
47455;SDS011;33202;48.512;-2.780;2022-11-20T09:39:56;25.27;;;5.32;;
47455;SDS011;33202;48.512;-2.780;2022-11-20T09:42:26;26.02;;;4.93;;
47455;SDS011;33202;48.512;-2.780;2022-11-20T09:52:53;20.50;;;4.32;;
47455;SDS011;33202;48.512;-2.780;2022-11-20T09:55:23;24.67;;;4.40;;
47455;SDS011;33202;48.512;-2.780;2022-11-20T09:57:50;19.47;;;4.13;;
47455;SDS011;33202;48.512;-2.780;2022-11-20T10:00:17;19.48;;;4.15;;
47455;SDS011;33202;48.512;-2.780;2022-11-20T10:05:21;22.88;;;5.63;;
47455;SDS011;33202;48.512;-2.780;2022-11-20T10:10:36;26.48;;;5.20;;
47455;SDS011;33202;48.512;-2.780;2022-11-20T10:16:09;22.27;;;4.72;;
47455;SDS011;33202;48.512;-2.780;2022-11-20T10:23:59;29.15;;;5.47;;
47455;SDS011;33202;48.512;-2.780;2022-11-20T10:26:42;32.40;;;5.65;;
47455;SDS011;33202;48.512;-2.780;2022-11-20T10:31:36;21.88;;;4.80;;
47455;SDS011;33202;48.512;-2.780;2022-11-20T10:34:07;29.27;;;5.07;;
47455;SDS011;33202;48.512;-2.780;2022-11-20T10:36:35;26.75;;;4.97;;
47455;SDS011;33202;48.512;-2.780;2022-11-20T10:39:11;24.70;;;5.13;;
47455;SDS011;33202;48.512;-2.780;2022-11-20T10:41:41;25.85;;;5.30;;
47455;SDS011;33202;48.512;-2.780;2022-11-20T10:46:40;25.20;;;4.63;;
47455;SDS011;33202;48.512;-2.780;2022-11-20T10:49:18;25.65;;;4.78;;
47455;SDS011;33202;48.512;-2.780;2022-11-20T10:51:52;24.73;;;4.85;;
47455;SDS011;33202;48.512;-2.780;2022-11-20T10:54:24;28.13;;;5.05;;
47455;SDS011;33202;48.512;-2.780;2022-11-20T10:56:53;33.45;;;5.82;;
47455;SDS011;33202;48.512;-2.780;2022-11-20T11:01:57;28.73;;;4.80;;
47455;SDS011;33202;48.512;-2.780;2022-11-20T11:04:28;29.60;;;4.35;;
47455;SDS011;33202;48.512;-2.780;2022-11-20T11:06:58;27.70;;;5.38;;
47455;SDS011;33202;48.512;-2.780;2022-11-20T11:09:29;34.08;;;4.80;;
47455;SDS011;33202;48.512;-2.780;2022-11-20T11:11:57;27.77;;;5.20;;
47455;SDS011;33202;48.512;-2.780;2022-11-20T11:14:23;28.38;;;4.97;;
47455;SDS011;33202;48.512;-2.780;2022-11-20T11:16:58;24.92;;;4.93;;
47455;SDS011;33202;48.512;-2.780;2022-11-20T11:19:25;33.25;;;4.53;;
47455;SDS011;33202;48.512;-2.780;2022-11-20T11:21:52;24.77;;;5.40;;
47455;SDS011;33202;48.512;-2.780;2022-11-20T11:24:28;27.90;;;5.25;;
47455;SDS011;33202;48.512;-2.780;2022-11-20T11:26:58;26.38;;;5.10;;
47455;SDS011;33202;48.512;-2.780;2022-11-20T11:29:29;20.25;;;4.70;;
47455;SDS011;33202;48.512;-2.780;2022-11-20T11:32:12;24.67;;;4.78;;
47455;SDS011;33202;48.512;-2.780;2022-11-20T11:34:38;22.92;;;4.50;;
47455;SDS011;33202;48.512;-2.780;2022-11-20T11:37:04;20.73;;;4.20;;
47455;SDS011;33202;48.512;-2.780;2022-11-20T11:39:31;26.33;;;4.35;;
47455;SDS011;33202;48.512;-2.780;2022-11-20T11:41:58;28.67;;;5.47;;
47455;SDS011;33202;48.512;-2.780;2022-11-20T11:44:30;21.67;;;4.78;;
47455;SDS011;33202;48.512;-2.780;2022-11-20T11:49:45;17.58;;;4.28;;
47455;SDS011;33202;48.512;-2.780;2022-11-20T11:57:07;23.92;;;4.07;;
47455;SDS011;33202;48.512;-2.780;2022-11-20T12:02:34;20.23;;;4.15;;
47455;SDS011;33202;48.512;-2.780;2022-11-20T12:04:58;24.40;;;4.05;;
47455;SDS011;33202;48.512;-2.780;2022-11-20T12:07:47;19.52;;;3.75;;
47455;SDS011;33202;48.512;-2.780;2022-11-20T12:10:16;19.95;;;3.40;;
47455;SDS011;33202;48.512;-2.780;2022-11-20T12:12:44;19.80;;;3.40;;
47455;SDS011;33202;48.512;-2.780;2022-11-20T12:15:11;20.13;;;3.50;;
47455;SDS011;33202;48.512;-2.780;2022-11-20T12:17:38;26.75;;;4.10;;
47455;SDS011;33202;48.512;-2.780;2022-11-20T12:20:10;19.45;;;3.85;;
47455;SDS011;33202;48.512;-2.780;2022-11-20T12:25:14;20.08;;;4.18;;
47455;SDS011;33202;48.512;-2.780;2022-11-20T12:30:16;14.93;;;3.60;;
47455;SDS011;33202;48.512;-2.780;2022-11-20T12:38:26;12.70;;;2.97;;
47455;SDS011;33202;48.512;-2.780;2022-11-20T12:43:35;15.20;;;3.42;;
47455;SDS011;33202;48.512;-2.780;2022-11-20T12:57:21;16.80;;;2.97;;
47455;SDS011;33202;48.512;-2.780;2022-11-20T12:59:54;13.77;;;3.55;;
47455;SDS011;33202;48.512;-2.780;2022-11-20T13:02:25;15.55;;;2.92;;
47455;SDS011;33202;48.512;-2.780;2022-11-20T13:05:01;15.65;;;2.47;;
47455;SDS011;33202;48.512;-2.780;2022-11-20T13:07:30;13.98;;;2.90;;
47455;SDS011;33202;48.512;-2.780;2022-11-20T13:09:56;14.82;;;3.00;;
47455;SDS011;33202;48.512;-2.780;2022-11-20T13:12:33;14.02;;;3.22;;
47455;SDS011;33202;48.512;-2.780;2022-11-20T13:15:07;10.38;;;2.55;;
47455;SDS011;33202;48.512;-2.780;2022-11-20T13:20:04;17.35;;;3.10;;
47455;SDS011;33202;48.512;-2.780;2022-11-20T13:25:10;16.75;;;2.63;;
47455;SDS011;33202;48.512;-2.780;2022-11-20T13:27:36;11.43;;;2.33;;
47455;SDS011;33202;48.512;-2.780;2022-11-20T13:30:13;12.23;;;2.60;;
47455;SDS011;33202;48.512;-2.780;2022-11-20T13:32:53;15.23;;;2.75;;
47455;SDS011;33202;48.512;-2.780;2022-11-20T13:35:54;12.13;;;2.58;;
47455;SDS011;33202;48.512;-2.780;2022-11-20T13:38:13;20.65;;;3.75;;
47455;SDS011;33202;48.512;-2.780;2022-11-20T13:40:50;14.75;;;2.65;;
47455;SDS011;33202;48.512;-2.780;2022-11-20T13:45:55;15.68;;;2.70;;
47455;SDS011;33202;48.512;-2.780;2022-11-20T13:53:37;16.80;;;2.22;;
47455;SDS011;33202;48.512;-2.780;2022-11-20T13:56:16;22.83;;;3.08;;
47455;SDS011;33202;48.512;-2.780;2022-11-20T14:01:17;12.68;;;2.60;;
47455;SDS011;33202;48.512;-2.780;2022-11-20T14:03:44;17.15;;;2.53;;
47455;SDS011;33202;48.512;-2.780;2022-11-20T14:06:12;11.15;;;2.20;;
47455;SDS011;33202;48.512;-2.780;2022-11-20T14:08:44;10.02;;;2.40;;
47455;SDS011;33202;48.512;-2.780;2022-11-20T14:11:21;15.10;;;2.90;;
47455;SDS011;33202;48.512;-2.780;2022-11-20T14:13:54;17.20;;;2.70;;
47455;SDS011;33202;48.512;-2.780;2022-11-20T14:16:22;12.30;;;2.88;;
47455;SDS011;33202;48.512;-2.780;2022-11-20T14:18:48;13.87;;;3.07;;
47455;SDS011;33202;48.512;-2.780;2022-11-20T14:21:27;11.57;;;2.40;;
47455;SDS011;33202;48.512;-2.780;2022-11-20T14:24:03;9.57;;;2.65;;
47455;SDS011;33202;48.512;-2.780;2022-11-20T14:26:29;14.23;;;3.38;;
47455;SDS011;33202;48.512;-2.780;2022-11-20T14:28:55;14.70;;;3.95;;
47455;SDS011;33202;48.512;-2.780;2022-11-20T14:31:23;11.75;;;2.88;;
47455;SDS011;33202;48.512;-2.780;2022-11-20T14:33:49;15.13;;;2.70;;
47455;SDS011;33202;48.512;-2.780;2022-11-20T14:36:20;11.40;;;2.00;;
47455;SDS011;33202;48.512;-2.780;2022-11-20T14:38:46;9.85;;;1.83;;
47455;SDS011;33202;48.512;-2.780;2022-11-20T14:41:19;14.50;;;2.70;;
47455;SDS011;33202;48.512;-2.780;2022-11-20T14:44:08;19.17;;;2.97;;
47455;SDS011;33202;48.512;-2.780;2022-11-20T14:46:32;11.43;;;2.60;;
47455;SDS011;33202;48.512;-2.780;2022-11-20T14:49:00;15.63;;;2.50;;
47455;SDS011;33202;48.512;-2.780;2022-11-20T14:53:53;12.23;;;2.83;;
47455;SDS011;33202;48.512;-2.780;2022-11-20T14:56:23;14.60;;;2.63;;
47455;SDS011;33202;48.512;-2.780;2022-11-20T14:58:58;14.07;;;2.63;;
47455;SDS011;33202;48.512;-2.780;2022-11-20T15:01:28;15.43;;;3.20;;
47455;SDS011;33202;48.512;-2.780;2022-11-20T15:06:26;19.13;;;2.90;;
47455;SDS011;33202;48.512;-2.780;2022-11-20T15:08:53;13.52;;;2.35;;
47455;SDS011;33202;48.512;-2.780;2022-11-20T15:11:25;14.13;;;2.72;;
47455;SDS011;33202;48.512;-2.780;2022-11-20T15:13:53;23.15;;;3.42;;
47455;SDS011;33202;48.512;-2.780;2022-11-20T15:16:20;19.65;;;3.45;;
47455;SDS011;33202;48.512;-2.780;2022-11-20T15:18:46;12.90;;;2.60;;
47455;SDS011;33202;48.512;-2.780;2022-11-20T15:21:16;17.35;;;3.22;;
47455;SDS011;33202;48.512;-2.780;2022-11-20T15:23:43;11.50;;;2.65;;
47455;SDS011;33202;48.512;-2.780;2022-11-20T15:26:10;11.40;;;2.40;;
47455;SDS011;33202;48.512;-2.780;2022-11-20T15:28:37;13.13;;;3.35;;
47455;SDS011;33202;48.512;-2.780;2022-11-20T15:31:05;13.55;;;2.95;;
47455;SDS011;33202;48.512;-2.780;2022-11-20T15:33:31;20.80;;;2.80;;
47455;SDS011;33202;48.512;-2.780;2022-11-20T15:35:57;18.63;;;6.33;;
47455;SDS011;33202;48.512;-2.780;2022-11-20T15:38:24;19.55;;;5.28;;
47455;SDS011;33202;48.512;-2.780;2022-11-20T15:40:50;15.70;;;4.45;;
47455;SDS011;33202;48.512;-2.780;2022-11-20T15:43:15;14.25;;;4.10;;
47455;SDS011;33202;48.512;-2.780;2022-11-20T15:45:49;30.67;;;5.78;;
47455;SDS011;33202;48.512;-2.780;2022-11-20T15:48:23;20.75;;;6.18;;
47455;SDS011;33202;48.512;-2.780;2022-11-20T15:50:51;19.17;;;4.32;;
47455;SDS011;33202;48.512;-2.780;2022-11-20T15:53:18;27.55;;;11.07;;
47455;SDS011;33202;48.512;-2.780;2022-11-20T15:55:44;16.88;;;5.60;;
47455;SDS011;33202;48.512;-2.780;2022-11-20T15:58:10;21.23;;;4.75;;
47455;SDS011;33202;48.512;-2.780;2022-11-20T16:00:36;18.60;;;4.32;;
47455;SDS011;33202;48.512;-2.780;2022-11-20T16:03:02;14.52;;;4.47;;
47455;SDS011;33202;48.512;-2.780;2022-11-20T16:05:28;19.50;;;5.13;;
47455;SDS011;33202;48.512;-2.780;2022-11-20T16:07:54;17.08;;;3.65;;
47455;SDS011;33202;48.512;-2.780;2022-11-20T16:10:21;18.65;;;5.03;;
47455;SDS011;33202;48.512;-2.780;2022-11-20T16:12:47;18.23;;;4.15;;
47455;SDS011;33202;48.512;-2.780;2022-11-20T16:15:31;19.58;;;4.30;;